KAFN/AFN METAR and TAF weather

Enter ICAO airport designator
Station Type Date Time Source
KAFN METAR 2022/01/19 19:52 UTC NOAA

KAFN 191952Z AUTO 21011G23KT 10SM FEW085 04/M04 A2982 RMK AO2 PK WND 20027/1911 SLP117 T00441039


Station Type Date Time Source
KAFN Decoded METAR 2022/01/19 19:52 UTC NOAA

JAFFREY MUNI-SILVER RANCH, NH, United States (KAFN) 42-48N 72-00W 313M
Jan 19, 2022 - 02:52 PM EST / 2022.01.19 1952 UTC
Wind: from the SSW (210 degrees) at 13 MPH (11 KT) gusting to 26 MPH (23 KT):0
Visibility: 10 mile(s):0
Sky conditions: mostly clear
Temperature: 39.9 F (4.4 C)
Dew Point: 25.0 F (-3.9 C)
Relative Humidity: 54%
Pressure (altimeter): 29.82 in. Hg (1009 hPa)
ob: KAFN 191952Z AUTO 21011G23KT 10SM FEW085 04/M04 A2982 RMK AO2 PK WND 20027/1911 SLP117 T00441039
cycle: 20

Station Type Date Time Source
KAFN TAF UTC NOAA

Error!

Example: see airport list